Time;durP1;ratioP1;P1;durP2;ratioP2;P2;SDS_P1;SDS_P2;PMS_P1;PMS_P2;Temp;Humidity;BMP_temperature;BMP_pressure;BME280_temperature;BME280_humidity;BME280_pressure;Samples;Min_cycle;Max_cycle;Signal;HPM_P1;HPM_P2
2022/08/02 00:01:07;;;;;;;;;;;22.10;68.60;;;21.45;63.24;96141.50;4236110;33;20243;-81
2022/08/02 00:03:36;;;;;;;;;;;22.10;68.60;;;21.44;63.36;96148.22;4235376;33;20011;-81
2022/08/02 00:06:05;;;;;;;;;;;22.00;68.50;;;21.43;63.34;96143.81;4236038;33;19902;-81
2022/08/02 00:08:35;;;;;;;;;;;22.10;68.60;;;21.44;63.28;96148.22;4236026;33;20333;-81
2022/08/02 00:11:04;;;;;;;;;;;22.10;68.60;;;21.44;63.33;96139.88;4234754;33;19903;-81
2022/08/02 00:13:32;;;;;;;;;;;22.10;68.60;;;21.43;63.31;96143.81;4234329;33;20167;-81
2022/08/02 00:16:01;;;;;;;;;;;22.00;68.50;;;21.43;63.26;96137.41;4234894;33;19902;-81
2022/08/02 00:18:29;;;;;;;;;;;22.10;68.60;;;21.43;63.39;96137.41;4235890;33;20088;-80
2022/08/02 00:20:58;;;;;;;;;;;22.10;68.70;;;21.43;63.35;96137.41;4234809;33;19902;-80
2022/08/02 00:23:26;;;;;;;;;;;22.00;68.50;;;21.43;63.23;96137.41;4235126;33;20225;-81
2022/08/02 00:25:56;;;;;;;;;;;22.00;68.50;;;21.43;63.33;96131.84;4211519;33;19902;-81
2022/08/02 00:28:25;;;;;;;;;;;22.00;68.60;;;21.42;63.41;96144.97;4234823;33;19909;-81
2022/08/02 00:30:54;;;;;;;;;;;22.00;68.50;;;21.41;63.33;96140.53;4234765;33;19902;-81
2022/08/02 00:33:22;;;;;;;;;;;22.00;68.50;;;21.41;63.27;96140.53;4235260;33;20034;-81
2022/08/02 00:35:51;;;;;;;;;;;22.00;68.50;;;21.42;63.08;96141.38;4235644;33;19910;-81
2022/08/02 00:38:22;;;;;;;;;;;22.00;68.50;;;21.41;63.19;96140.53;4235569;33;19996;-80
2022/08/02 00:40:52;;;;;;;;;;;22.00;68.50;;;21.41;63.34;96136.97;4234669;33;20221;-80
2022/08/02 00:43:22;;;;;;;;;;;22.00;68.60;;;21.40;63.28;96133.34;4210450;33;20189;-81
2022/08/02 00:46:05;;;;;;;;;;;22.00;68.60;;;21.41;63.34;96134.16;4234685;33;19903;-81
2022/08/02 00:49:38;;;;;;;;;;;;;;;;;;;;;
2022/08/02 00:52:18;;;;;;;;;;;22.00;68.60;;;21.39;63.23;96131.72;4233802;33;20069;-82
2022/08/02 00:54:55;;;;;;;;;;;22.00;68.50;;;21.40;63.26;96135.31;4234165;33;19902;-82
2022/08/02 00:57:24;;;;;;;;;;;22.00;68.50;;;21.40;63.25;96146.47;4258206;33;20075;-82
2022/08/02 00:59:59;;;;;;;;;;;22.00;68.50;;;21.39;63.22;96142.06;4234176;33;20217;-82
2022/08/02 01:02:28;;;;;;;;;;;22.00;68.50;;;21.39;63.26;96136.47;4233720;33;19903;-82
2022/08/02 01:04:56;;;;;;;;;;;22.00;68.50;;;21.38;63.32;96135.66;4235046;33;20225;-81
2022/08/02 01:07:25;;;;;;;;;;;22.00;68.50;;;21.38;63.22;96138.44;4234147;33;19903;-82
2022/08/02 01:09:54;;;;;;;;;;;22.00;68.50;;;21.38;63.37;96138.44;4234122;33;20272;-82
2022/08/02 01:12:22;;;;;;;;;;;22.00;68.60;;;21.38;63.37;96134.84;4210126;33;19902;-82
2022/08/02 01:14:51;;;;;;;;;;;22.00;68.50;;;21.38;63.28;96143.22;4233831;33;19903;-81
2022/08/02 01:17:27;;;;;;;;;;;22.00;68.60;;;21.37;63.32;96150.72;4234912;33;20087;-81
2022/08/02 01:20:01;;;;;;;;;;;22.00;68.60;;;21.37;63.25;96136.81;4235070;33;20167;-82
2022/08/02 01:22:42;;;;;;;;;;;22.00;68.60;;;21.38;63.25;96140.41;4233233;33;19909;-82
2022/08/02 01:25:25;;;;;;;;;;;22.00;68.50;;;21.36;63.55;96138.00;4233967;33;19909;-81
2022/08/02 01:28:22;;;;;;;;;;;22.00;68.50;;;21.36;63.37;96138.00;4234878;33;19902;-82
2022/08/02 01:30:52;;;;;;;;;;;22.00;68.60;;;21.37;62.97;96138.78;4233844;33;19909;-82
2022/08/02 01:33:20;;;;;;;;;;;22.00;68.50;;;21.35;63.19;96130.78;4234238;33;20232;-81
2022/08/02 01:35:52;;;;;;;;;;;21.90;68.50;;;21.36;63.24;96139.94;4233836;33;20144;-81
2022/08/02 01:38:26;;;;;;;;;;;22.00;68.50;;;21.36;63.25;96132.41;4233716;33;19990;-82
2022/08/02 01:40:54;;;;;;;;;;;22.00;68.60;;;21.35;63.18;96130.78;4234887;33;20064;-81
2022/08/02 01:43:24;;;;;;;;;;;21.90;68.50;;;21.36;63.22;96121.28;4234030;33;19902;-81
2022/08/02 01:45:53;;;;;;;;;;;22.00;68.50;;;21.36;63.25;96120.44;4234886;33;20125;-82
2022/08/02 01:48:21;;;;;;;;;;;21.90;68.50;;;21.36;63.32;96117.66;4233673;33;19902;-82
2022/08/02 01:50:50;;;;;;;;;;;22.00;68.60;;;21.34;63.04;96109.66;4233446;33;19902;-81
2022/08/02 01:53:19;;;;;;;;;;;21.90;68.60;;;21.35;63.34;96116.03;4233121;33;19903;-81
2022/08/02 01:55:50;;;;;;;;;;;22.00;68.60;;;21.35;63.28;96116.88;4234477;33;20118;-81
2022/08/02 01:58:20;;;;;;;;;;;22.00;68.60;;;21.34;63.22;96115.25;4234468;33;20121;-82
2022/08/02 02:00:50;;;;;;;;;;;21.90;68.60;;;21.34;63.31;96118.03;4234186;33;20129;-81
2022/08/02 02:03:22;;;;;;;;;;;22.00;68.60;;;21.34;63.19;96114.41;4234037;33;19935;-82
2022/08/02 02:05:50;;;;;;;;;;;21.90;68.70;;;21.34;62.94;96117.19;4233397;33;20439;-82
2022/08/02 02:08:21;;;;;;;;;;;22.00;68.60;;;21.33;63.34;96116.41;4233672;33;20339;-81
2022/08/02 02:10:50;;;;;;;;;;;21.90;68.60;;;21.32;63.38;96117.53;4234419;33;19903;-82
2022/08/02 02:13:19;;;;;;;;;;;22.00;68.60;;;21.33;63.50;96115.56;4209461;33;19909;-81
2022/08/02 02:15:50;;;;;;;;;;;21.90;68.60;;;21.33;63.33;96113.59;4234318;33;20138;-82
2022/08/02 02:18:23;;;;;;;;;;;21.90;68.60;;;21.34;63.43;96117.19;4234342;33;20221;-81
2022/08/02 02:20:53;;;;;;;;;;;21.90;68.60;;;21.33;63.29;96110.00;4233312;33;19987;-82
2022/08/02 02:23:22;;;;;;;;;;;21.90;68.60;;;21.32;63.23;96111.97;4233701;33;19902;-81
2022/08/02 02:25:53;;;;;;;;;;;21.90;68.60;;;21.33;63.35;96108.03;4234401;33;20060;-82
2022/08/02 02:28:27;;;;;;;;;;;21.90;68.70;;;21.32;63.35;96111.97;4234263;33;20102;-81
2022/08/02 02:31:00;;;;;;;;;;;21.90;68.70;;;21.31;63.38;96105.59;4232512;33;20229;-82
2022/08/02 02:33:29;;;;;;;;;;;21.90;68.70;;;21.31;63.39;96104.78;4232028;33;19909;-81
2022/08/02 02:35:57;;;;;;;;;;;21.90;68.70;;;21.31;63.55;96107.56;4233108;33;19902;-82
2022/08/02 02:38:28;;;;;;;;;;;21.90;68.70;;;21.30;63.38;96109.53;4233217;33;19902;-82
2022/08/02 02:40:57;;;;;;;;;;;21.90;68.70;;;21.30;63.24;96106.72;4233293;33;19902;-82
2022/08/02 02:43:25;;;;;;;;;;;21.90;68.80;;;21.30;63.28;96106.72;4232482;33;20043;-81
2022/08/02 02:45:54;;;;;;;;;;;21.90;68.70;;;21.30;63.36;96111.50;4234157;33;19984;-81
2022/08/02 02:48:25;;;;;;;;;;;21.90;68.70;;;21.30;63.41;96111.50;4234013;33;20066;-82
2022/08/02 02:50:53;;;;;;;;;;;21.90;68.70;;;21.30;63.55;96108.72;4233974;33;20149;-82
2022/08/02 02:53:22;;;;;;;;;;;21.90;68.70;;;21.30;63.55;96117.06;4233609;33;19910;-82
2022/08/02 02:55:50;;;;;;;;;;;21.90;68.70;;;21.30;63.42;96117.06;4209463;33;20125;-82
2022/08/02 02:58:19;;;;;;;;;;;21.90;68.70;;;21.29;63.23;96116.28;4233915;33;19902;-82
2022/08/02 03:03:35;;;;;;;;;;;21.90;68.70;;;21.29;63.45;96121.00;4233476;33;19910;-81
2022/08/02 03:06:03;;;;;;;;;;;21.90;68.70;;;21.29;63.39;96121.00;4233918;33;19914;-82
2022/08/02 03:08:32;;;;;;;;;;;21.90;68.70;;;21.29;63.53;96124.63;4233019;33;19913;-82
2022/08/02 03:11:00;;;;;;;;;;;21.90;68.70;;;21.29;63.38;96129.38;4234250;33;19902;-82
2022/08/02 03:13:29;;;;;;;;;;;21.90;68.80;;;21.29;63.57;96127.41;4236104;33;20115;-81
2022/08/02 03:15:58;;;;;;;;;;;21.90;68.80;;;21.29;63.47;96129.38;4235353;33;19910;-82
2022/08/02 03:18:35;;;;;;;;;;;21.90;68.80;;;21.29;63.14;96126.56;4236338;33;20254;-82
2022/08/02 03:21:06;;;;;;;;;;;21.90;68.80;;;21.27;63.43;96123.31;4235192;33;19909;-81
2022/08/02 03:23:34;;;;;;;;;;;21.90;68.80;;;21.28;63.52;96130.50;4234748;33;20114;-81
2022/08/02 03:26:03;;;;;;;;;;;21.90;68.80;;;21.27;63.43;96126.94;4236069;33;19902;-82
2022/08/02 03:28:32;;;;;;;;;;;21.90;68.80;;;21.27;63.49;96123.31;4235225;33;19917;-81
2022/08/02 03:31:00;;;;;;;;;;;21.90;68.80;;;21.27;63.35;96128.88;4235263;33;20133;-82
2022/08/02 03:33:29;;;;;;;;;;;21.90;68.80;;;21.28;63.23;96130.50;4235608;33;19902;-82
2022/08/02 03:36:01;;;;;;;;;;;21.90;68.80;;;21.28;63.26;96133.31;4236337;33;19902;-81
2022/08/02 03:38:29;;;;;;;;;;;21.90;68.80;;;21.27;63.36;96134.44;4235343;33;20094;-81
2022/08/02 03:40:58;;;;;;;;;;;21.90;68.80;;;21.27;63.49;96140.03;4211729;33;20003;-81
2022/08/02 03:43:26;;;;;;;;;;;21.90;68.90;;;21.27;63.40;96148.38;4234680;33;19902;-82
2022/08/02 03:45:55;;;;;;;;;;;21.90;68.90;;;21.27;63.06;96145.59;4235734;33;19957;-81
2022/08/02 03:48:24;;;;;;;;;;;21.90;68.80;;;21.27;63.43;96153.94;4235077;33;19958;-82
2022/08/02 03:50:52;;;;;;;;;;;21.80;68.70;;;21.27;63.66;96151.16;4235881;33;19909;-81
2022/08/02 03:53:22;;;;;;;;;;;21.80;68.70;;;21.27;63.20;96162.28;4234578;33;20129;-82
2022/08/02 03:55:51;;;;;;;;;;;21.80;68.70;;;21.26;63.46;96160.66;4235732;33;19909;-82
2022/08/02 03:58:23;;;;;;;;;;;21.80;68.80;;;21.26;63.55;96161.50;4236036;33;20066;-81
2022/08/02 04:00:52;;;;;;;;;;;21.90;68.80;;;21.26;63.42;96157.88;4235921;33;19902;-81
2022/08/02 04:03:21;;;;;;;;;;;21.90;68.90;;;21.26;63.41;96172.63;4235303;33;19926;-82
2022/08/02 04:05:50;;;;;;;;;;;21.90;68.80;;;21.26;63.63;96169.84;4235766;33;20138;-82
2022/08/02 04:08:18;;;;;;;;;;;21.80;68.80;;;21.26;63.52;96178.19;4235912;33;20040;-81
2022/08/02 04:13:36;;;;;;;;;;;21.80;68.80;;;21.25;63.33;96170.16;4235519;33;20133;-82
2022/08/02 04:16:09;;;;;;;;;;;21.80;68.70;;;21.26;63.44;96171.81;4235678;33;19903;-82
2022/08/02 04:18:43;;;;;;;;;;;21.80;68.80;;;21.25;63.28;96167.38;4234699;33;19902;-82
2022/08/02 04:21:14;;;;;;;;;;;21.80;68.80;;;21.25;63.47;96175.75;4235524;33;19910;-82
2022/08/02 04:23:50;;;;;;;;;;;21.90;68.80;;;21.26;63.42;96182.94;4257612;33;19906;-81
2022/08/02 04:26:23;;;;;;;;;;;21.80;68.70;;;21.26;63.64;96171.81;4234437;33;19903;-81
2022/08/02 04:28:52;;;;;;;;;;;21.80;68.70;;;21.26;63.49;96177.38;4211200;33;20160;-81
2022/08/02 04:31:20;;;;;;;;;;;21.90;68.90;;;21.25;63.51;96182.13;4234358;33;19962;-81
2022/08/02 04:33:49;;;;;;;;;;;21.80;68.80;;;21.27;63.22;96170.66;4234905;33;20044;-81
2022/08/02 04:36:17;;;;;;;;;;;21.80;68.70;;;21.26;63.45;96166.22;4258244;33;20108;-81
2022/08/02 04:38:48;;;;;;;;;;;21.90;68.80;;;21.26;63.58;96171.81;4235494;33;20416;-81
2022/08/02 04:41:17;;;;;;;;;;;21.90;68.80;;;21.27;63.40;96170.66;4234507;33;19911;-82
2022/08/02 04:43:47;;;;;;;;;;;21.90;68.80;;;21.28;63.41;96175.06;4233952;33;19910;-82
2022/08/02 04:46:16;;;;;;;;;;;21.90;68.80;;;21.29;63.40;96169.16;4258073;33;20016;-81
2022/08/02 04:48:44;;;;;;;;;;;21.90;68.80;;;21.31;63.54;96174.38;4235285;33;19976;-82
2022/08/02 04:51:13;;;;;;;;;;;21.90;68.70;;;21.32;63.21;96178.81;4234345;33;19957;-82
2022/08/02 04:53:41;;;;;;;;;;;21.90;68.60;;;21.32;63.38;96176.03;4234943;33;20047;-82
2022/08/02 04:56:10;;;;;;;;;;;21.90;68.50;;;21.33;63.25;96177.66;4210682;33;19962;-82
2022/08/02 04:58:38;;;;;;;;;;;21.90;68.50;;;21.33;63.27;96176.81;4235245;33;20113;-82
2022/08/02 05:01:08;;;;;;;;;;;21.90;68.40;;;21.31;63.32;96179.97;4233854;33;20442;-81
2022/08/02 05:03:37;;;;;;;;;;;21.90;68.50;;;21.32;63.28;96192.72;4233501;33;19903;-82
2022/08/02 05:06:06;;;;;;;;;;;21.90;68.50;;;21.32;63.12;96189.94;4233983;33;19916;-81
2022/08/02 05:08:34;;;;;;;;;;;21.90;68.50;;;21.31;63.13;96193.88;4235197;33;20114;-81
2022/08/02 05:11:03;;;;;;;;;;;21.90;68.50;;;21.31;63.19;96196.66;4233991;33;19902;-82
2022/08/02 05:13:35;;;;;;;;;;;21.90;68.50;;;21.31;63.29;96191.09;4233677;33;19903;-82
2022/08/02 05:16:04;;;;;;;;;;;21.90;68.50;;;21.31;63.32;96196.66;4234821;33;19902;-82
2022/08/02 05:18:34;;;;;;;;;;;21.90;68.50;;;21.31;63.40;96196.66;4233933;33;20072;-81
2022/08/02 05:21:02;;;;;;;;;;;21.90;68.50;;;21.30;63.21;96195.03;4233884;33;19903;-81
2022/08/02 05:23:31;;;;;;;;;;;21.90;68.50;;;21.31;63.31;96197.47;4233409;33;20071;-81
2022/08/02 05:25:59;;;;;;;;;;;21.90;68.50;;;21.30;63.20;96195.84;4234773;33;20438;-82
2022/08/02 05:28:28;;;;;;;;;;;21.90;68.50;;;21.31;63.34;96202.22;4234829;33;19909;-81
2022/08/02 05:30:56;;;;;;;;;;;21.90;68.70;;;21.31;63.29;96199.44;4234772;33;19902;-82
2022/08/02 05:33:25;;;;;;;;;;;21.90;68.60;;;21.32;63.21;96198.28;4232934;33;20236;-82
2022/08/02 05:35:57;;;;;;;;;;;21.90;68.60;;;21.33;63.14;96199.94;4234651;33;20211;-82
2022/08/02 05:38:27;;;;;;;;;;;21.90;68.50;;;21.33;63.29;96199.94;4210285;33;20221;-80
2022/08/02 05:40:55;;;;;;;;;;;21.90;68.50;;;21.33;63.35;96193.53;4234707;33;20024;-81
2022/08/02 05:43:24;;;;;;;;;;;21.90;68.70;;;21.35;63.34;96203.19;4257130;33;19919;-81
2022/08/02 05:45:53;;;;;;;;;;;22.00;68.50;;;21.36;63.22;96198.41;4233506;33;19902;-81
2022/08/02 05:48:22;;;;;;;;;;;22.00;68.60;;;21.37;63.32;96202.84;4233560;33;20403;-81
2022/08/02 05:50:59;;;;;;;;;;;22.00;68.40;;;21.37;63.01;96206.44;4234541;33;19909;-81
2022/08/02 05:53:34;;;;;;;;;;;22.00;68.50;;;21.37;63.13;96203.63;4233073;33;20215;-81
2022/08/02 05:56:08;;;;;;;;;;;22.00;68.40;;;21.39;63.26;96201.34;4233593;33;20151;-81
2022/08/02 05:58:41;;;;;;;;;;;22.00;68.40;;;21.39;63.02;96197.75;4234615;33;20034;-81
2022/08/02 06:01:10;;;;;;;;;;;22.00;68.20;;;21.41;62.99;96203.78;4234609;33;20306;-81
2022/08/02 06:03:41;;;;;;;;;;;22.10;68.50;;;21.42;63.07;96199.84;4233022;33;20138;-81
2022/08/02 06:06:12;;;;;;;;;;;22.00;69.20;;;21.42;63.18;96197.88;4233534;33;19955;-81
2022/08/02 06:08:44;;;;;;;;;;;22.00;68.40;;;21.45;63.33;96205.56;4234338;33;19903;-81
2022/08/02 06:11:14;;;;;;;;;;;22.10;68.50;;;21.46;63.44;96209.13;4233430;33;20166;-81
2022/08/02 06:13:43;;;;;;;;;;;22.10;68.70;;;21.49;63.37;96199.31;4232842;33;20285;-81
2022/08/02 06:16:11;;;;;;;;;;;22.10;68.50;;;21.51;63.09;96202.53;4233164;33;19902;-81
2022/08/02 06:18:41;;;;;;;;;;;22.10;68.40;;;21.57;62.90;96201.19;4234290;33;19954;-81
2022/08/02 06:21:11;;;;;;;;;;;22.20;68.30;;;21.66;63.02;96201.94;4233125;33;19902;-82
2022/08/02 06:23:41;;;;;;;;;;;22.20;68.30;;;21.73;62.94;96207.78;4209239;33;19909;-81
2022/08/02 06:26:10;;;;;;;;;;;22.30;68.20;;;21.80;62.91;96203.59;4234444;33;20015;-81
2022/08/02 06:28:39;;;;;;;;;;;22.30;67.90;;;21.85;62.42;96204.19;4233324;33;19903;-81
2022/08/02 06:31:08;;;;;;;;;;;22.40;67.70;;;21.90;62.56;96200.38;4233311;33;20077;-82
2022/08/02 06:33:36;;;;;;;;;;;22.50;67.70;;;21.94;62.38;96190.16;4233579;33;19909;-81
2022/08/02 06:36:08;;;;;;;;;;;22.50;67.50;;;21.98;62.24;96196.69;4209605;33;20075;-82
2022/08/02 06:38:41;;;;;;;;;;;22.50;67.30;;;22.01;62.34;96190.41;4233091;33;19953;-82
2022/08/02 06:41:12;;;;;;;;;;;22.60;67.20;;;22.05;61.88;96199.72;4228588;33;20448;-81
2022/08/02 06:43:47;;;;;;;;;;;22.60;67.10;;;22.10;61.75;96192.28;4205391;33;19903;-81
2022/08/02 06:46:15;;;;;;;;;;;22.70;67.10;;;22.12;61.67;96201.13;4207376;33;19903;-81
2022/08/02 06:48:44;;;;;;;;;;;22.70;67.00;;;22.15;61.59;96201.25;4208267;33;20126;-81
2022/08/02 06:51:12;;;;;;;;;;;22.70;66.80;;;22.18;61.61;96203.34;4235694;33;19924;-82
2022/08/02 06:53:42;;;;;;;;;;;22.70;66.80;;;22.20;61.68;96203.78;4211598;33;20416;-81
2022/08/02 06:56:11;;;;;;;;;;;22.80;66.70;;;22.24;61.51;96209.50;4236407;33;19902;-82
2022/08/02 06:58:40;;;;;;;;;;;22.80;66.60;;;22.26;61.56;96207.19;4236410;33;19970;-82
2022/08/02 07:01:08;;;;;;;;;;;22.80;66.50;;;22.28;61.23;96204.84;4235421;33;19903;-82
2022/08/02 07:03:37;;;;;;;;;;;22.80;66.40;;;22.30;61.41;96208.09;4234918;33;19910;-82
2022/08/02 07:06:09;;;;;;;;;;;22.90;66.50;;;22.33;61.57;96207.44;4259259;33;19925;-82
2022/08/02 07:08:38;;;;;;;;;;;22.90;66.40;;;22.36;61.14;96208.69;4235236;33;19902;-81
2022/08/02 07:11:08;;;;;;;;;;;22.90;66.30;;;22.38;61.00;96210.00;4211817;33;20062;-81
2022/08/02 07:13:37;;;;;;;;;;;22.90;66.30;;;22.42;61.38;96212.09;4235675;33;19974;-82
2022/08/02 07:16:06;;;;;;;;;;;23.00;66.20;;;22.45;61.10;96211.41;4235405;33;19902;-81
2022/08/02 07:18:34;;;;;;;;;;;23.00;66.10;;;22.47;61.25;96211.88;4235206;33;20225;-81
2022/08/02 07:21:05;;;;;;;;;;;23.00;66.10;;;22.48;61.16;96205.94;4235213;33;20064;-81
2022/08/02 07:23:33;;;;;;;;;;;23.00;66.00;;;22.50;60.91;96202.81;4234796;33;19973;-81
2022/08/02 07:26:02;;;;;;;;;;;23.00;65.90;;;22.52;60.88;96206.09;4236150;33;19909;-81
2022/08/02 07:28:32;;;;;;;;;;;23.10;65.90;;;22.54;60.51;96214.88;4211471;33;20244;-81
2022/08/02 07:31:00;;;;;;;;;;;23.10;65.90;;;22.56;60.62;96215.38;4235217;33;20080;-81
2022/08/02 07:33:29;;;;;;;;;;;23.10;65.90;;;22.57;60.93;96217.00;4211031;33;19902;-81
2022/08/02 07:35:57;;;;;;;;;;;23.10;65.80;;;22.59;60.43;96217.47;4235173;33;19902;-82
2022/08/02 07:38:26;;;;;;;;;;;23.10;65.80;;;22.60;60.76;96224.66;4235159;33;19957;-82
2022/08/02 07:40:54;;;;;;;;;;;23.20;65.70;;;22.59;60.63;96216.66;4235040;33;19903;-81
2022/08/02 07:43:23;;;;;;;;;;;23.10;65.70;;;22.57;60.80;96217.00;4235486;33;20256;-81
2022/08/02 07:45:53;;;;;;;;;;;23.10;65.70;;;22.57;60.66;96217.00;4235881;33;20031;-81
2022/08/02 07:48:22;;;;;;;;;;;23.10;65.70;;;22.58;60.60;96215.84;4234746;33;19903;-82
2022/08/02 07:50:50;;;;;;;;;;;23.20;65.80;;;22.60;60.44;96210.72;4236097;33;20122;-82
2022/08/02 07:53:19;;;;;;;;;;;23.10;65.70;;;22.61;60.51;96212.34;4235160;33;20015;-81
2022/08/02 07:55:47;;;;;;;;;;;23.10;65.60;;;22.63;60.74;96212.81;4234922;33;20054;-82
2022/08/02 07:58:16;;;;;;;;;;;23.20;65.60;;;22.60;60.55;96213.50;4234982;33;19992;-82
2022/08/02 08:00:45;;;;;;;;;;;23.20;65.50;;;22.55;60.98;96210.94;4234952;33;19902;-82
2022/08/02 08:03:15;;;;;;;;;;;23.20;65.70;;;22.54;60.75;96212.09;4234063;33;20133;-82
2022/08/02 08:05:43;;;;;;;;;;;23.10;65.80;;;22.54;60.63;96214.88;4235631;33;19929;-82
2022/08/02 08:08:12;;;;;;;;;;;23.10;65.70;;;22.51;60.76;96218.41;4234338;33;19985;-82
2022/08/02 08:10:41;;;;;;;;;;;23.10;65.70;;;22.48;60.87;96224.66;4211329;33;19902;-82
2022/08/02 08:13:09;;;;;;;;;;;23.10;65.90;;;22.45;61.03;96225.34;4234123;33;20040;-82
2022/08/02 08:15:38;;;;;;;;;;;23.10;66.00;;;22.43;60.94;96222.09;4234576;33;20140;-82
2022/08/02 08:18:06;;;;;;;;;;;23.00;66.00;;;22.43;61.32;96225.72;4234411;33;19913;-82
2022/08/02 08:20:37;;;;;;;;;;;23.00;66.00;;;22.45;61.04;96219.78;4234489;33;20111;-82
2022/08/02 08:23:06;;;;;;;;;;;23.00;66.00;;;22.44;61.23;96218.97;4210519;33;20217;-83
2022/08/02 08:25:34;;;;;;;;;;;23.00;66.00;;;22.45;60.83;96230.94;4234466;33;20650;-82
2022/08/02 08:28:03;;;;;;;;;;;23.00;65.90;;;22.41;61.22;96218.81;4234713;33;19902;-81
2022/08/02 08:30:31;;;;;;;;;;;23.00;66.00;;;22.38;61.42;96220.31;4234555;33;19902;-81
2022/08/02 08:33:00;;;;;;;;;;;23.00;66.20;;;22.33;61.40;96229.72;4234816;33;19918;-81
2022/08/02 08:35:29;;;;;;;;;;;23.00;66.20;;;22.29;61.36;96223.22;4210962;33;20057;-81
2022/08/02 08:37:59;;;;;;;;;;;22.90;66.40;;;22.26;61.75;96221.13;4210966;33;19969;-81
2022/08/02 08:40:27;;;;;;;;;;;22.90;66.60;;;22.22;61.65;96220.19;4235306;33;20162;-81
2022/08/02 08:42:56;;;;;;;;;;;22.90;66.60;;;22.18;62.01;96217.28;4233932;33;19902;-81
2022/08/02 08:45:25;;;;;;;;;;;22.80;66.70;;;22.18;61.99;96227.63;4234241;33;20126;-81
2022/08/02 08:48:00;;;;;;;;;;;22.80;66.80;;;22.19;61.80;96223.66;4234141;33;20086;-82
2022/08/02 08:50:31;;;;;;;;;;;22.80;66.80;;;22.22;61.75;96220.19;4234264;33;20088;-81
2022/08/02 08:53:04;;;;;;;;;;;22.80;66.80;;;22.23;61.48;96231.00;4233680;33;19945;-81
2022/08/02 08:55:36;;;;;;;;;;;22.80;66.80;;;22.26;61.81;96223.09;4233961;33;19903;-81
2022/08/02 08:58:05;;;;;;;;;;;22.90;66.80;;;22.27;61.85;96225.53;4235338;33;19909;-81
2022/08/02 09:00:35;;;;;;;;;;;22.90;66.90;;;22.29;61.60;96228.78;4210653;33;19910;-81
2022/08/02 09:03:04;;;;;;;;;;;22.90;66.70;;;22.29;61.60;96234.38;4233596;33;20209;-81
2022/08/02 09:05:35;;;;;;;;;;;22.90;66.70;;;22.30;61.83;96236.00;4235052;33;20058;-81
2022/08/02 09:08:08;;;;;;;;;;;22.90;66.80;;;22.29;61.81;96234.38;4235001;33;20137;-81
2022/08/02 09:10:39;;;;;;;;;;;22.90;66.70;;;22.29;62.29;96245.53;4235071;33;19998;-81
2022/08/02 09:13:14;;;;;;;;;;;22.90;66.90;;;22.28;61.62;96237.50;4234384;33;19902;-82
2022/08/02 09:15:45;;;;;;;;;;;22.90;66.80;;;22.25;61.63;96238.19;4234390;33;19909;-81
2022/08/02 09:18:14;;;;;;;;;;;22.90;66.80;;;22.22;61.86;96231.34;4210665;33;19902;-82
2022/08/02 09:20:53;;;;;;;;;;;22.90;66.90;;;22.20;62.32;96233.66;4233860;33;19902;-81
2022/08/02 09:23:23;;;;;;;;;;;22.80;66.80;;;22.18;62.01;96244.34;4209817;33;20096;-81
2022/08/02 09:27:00;;;;;;;;;;;22.80;66.80;;;22.16;62.04;96238.28;4234751;33;20050;-82
2022/08/02 09:29:37;;;;;;;;;;;22.80;66.90;;;22.14;61.93;96244.22;4206634;33;19907;-81
2022/08/02 09:32:22;;;;;;;;;;;22.80;67.00;;;22.12;62.01;96246.53;4184325;33;19911;-82
2022/08/02 09:34:53;;;;;;;;;;;22.80;67.00;;;22.12;62.22;96245.75;4212443;33;19902;-82
2022/08/02 09:37:27;;;;;;;;;;;22.70;67.10;;;22.11;62.12;96249.69;4234755;33;20093;-82
2022/08/02 09:40:03;;;;;;;;;;;22.70;67.30;;;22.10;62.40;96248.06;4234619;33;20104;-82
2022/08/02 09:42:36;;;;;;;;;;;22.70;67.20;;;22.07;62.23;96242.00;4209621;33;19909;-82
2022/08/02 09:45:09;;;;;;;;;;;22.70;67.30;;;22.06;62.33;96248.75;4233527;33;19918;-82
2022/08/02 09:47:42;;;;;;;;;;;22.70;67.30;;;22.05;62.16;96243.53;4233543;33;20026;-82
2022/08/02 09:50:11;;;;;;;;;;;22.70;67.30;;;22.04;62.42;96251.06;4210077;33;20020;-83
2022/08/02 09:52:40;;;;;;;;;;;22.70;67.50;;;22.03;62.38;96245.81;4232930;33;19910;-80
2022/08/02 09:55:13;;;;;;;;;;;22.70;67.40;;;22.02;62.20;96247.78;4232993;33;20222;-81
2022/08/02 09:57:42;;;;;;;;;;;22.70;67.50;;;22.02;62.53;96247.00;4233512;33;19966;-80
2022/08/02 10:00:22;;;;;;;;;;;22.60;67.30;;;22.01;62.60;96248.94;4233440;33;20323;-80
2022/08/02 10:03:07;;;;;;;;;;;22.60;67.30;;;22.00;62.47;96238.97;4233866;33;20134;-81
2022/08/02 10:06:01;;;;;;;;;;;22.60;67.30;;;21.99;62.31;96242.91;4234278;33;19914;-81
2022/08/02 10:08:30;;;;;;;;;;;22.60;67.30;;;21.99;62.33;96237.34;4228854;33;20038;-80
2022/08/02 10:11:00;;;;;;;;;;;22.60;67.40;;;21.99;62.03;96237.34;4233490;33;19982;-82
2022/08/02 10:13:30;;;;;;;;;;;22.60;67.30;;;22.00;62.33;96235.38;4232707;33;20151;-82
2022/08/02 10:15:58;;;;;;;;;;;22.60;67.50;;;22.00;62.45;96235.38;4233213;33;19906;-82
2022/08/02 10:18:27;;;;;;;;;;;22.60;67.30;;;22.00;62.49;96238.16;4209619;33;20037;-82
2022/08/02 10:20:56;;;;;;;;;;;22.60;67.40;;;21.99;62.22;96226.19;4233564;33;20006;-82
2022/08/02 10:23:32;;;;;;;;;;;22.60;67.30;;;22.01;62.44;96228.63;4209043;33;20093;-82
2022/08/02 10:26:26;;;;;;;;;;;22.60;67.50;;;21.99;62.45;96237.34;4209478;33;19910;-81
2022/08/02 10:29:42;;;;;;;;;;;22.60;67.40;;;22.01;62.36;96229.44;4209575;33;20449;-81
2022/08/02 10:32:13;;;;;;;;;;;22.60;67.40;;;22.01;62.50;96235.00;4233163;33;19903;-82
2022/08/02 10:34:48;;;;;;;;;;;22.60;67.20;;;22.00;62.46;96225.03;4232773;33;20272;-82
2022/08/02 10:37:33;;;;;;;;;;;22.60;67.30;;;22.02;62.47;96225.47;4233044;33;19909;-82
2022/08/02 10:40:24;;;;;;;;;;;22.70;67.40;;;22.02;62.19;96222.69;4204728;33;20025;-82
2022/08/02 10:43:53;;;;;;;;;;;;;;;;;;;;;
2022/08/02 10:46:50;;;;;;;;;;;22.70;67.40;;;22.03;62.47;96215.97;4204662;33;20150;-81
2022/08/02 10:49:46;;;;;;;;;;;22.60;67.20;;;22.03;61.94;96210.38;4204665;33;19910;-82
2022/08/02 10:52:46;;;;;;;;;;;22.70;67.30;;;22.03;62.48;96210.38;4204101;33;20047;-82
2022/08/02 10:55:30;;;;;;;;;;;22.70;67.20;;;22.02;62.39;96214.34;4204556;33;20214;-82
2022/08/02 10:58:18;;;;;;;;;;;22.70;67.20;;;22.03;62.32;96204.00;4204750;33;19902;-83
2022/08/02 11:00:50;;;;;;;;;;;22.70;67.20;;;22.04;62.24;96202.84;4227860;33;19903;-82
2022/08/02 11:04:07;;;;;;;;;;;22.70;67.20;;;22.04;61.89;96208.44;4181020;33;20078;-83
2022/08/02 11:07:12;;;;;;;;;;;22.70;67.30;;;22.02;62.27;96214.34;4181581;33;19902;-81
2022/08/02 11:10:53;;;;;;;;;;;22.70;67.20;;;22.02;62.32;96211.53;4205354;33;19902;-80
2022/08/02 11:13:39;;;;;;;;;;;22.60;67.10;;;22.02;62.11;96213.53;4192592;33;19903;-82
2022/08/02 11:16:08;;;;;;;;;;;22.60;67.20;;;22.01;62.33;96201.56;4208958;33;20237;-82
2022/08/02 11:19:02;;;;;;;;;;;22.70;67.30;;;22.02;62.32;96219.91;4232732;33;19909;-82
2022/08/02 11:21:32;;;;;;;;;;;22.60;67.20;;;22.02;62.25;96202.38;4232497;33;20133;-82
2022/08/02 11:24:28;;;;;;;;;;;22.70;67.70;;;22.01;62.36;96207.13;4231963;33;19909;-82
2022/08/02 11:27:21;;;;;;;;;;;22.60;67.30;;;22.01;62.20;96204.34;4220131;33;20153;-82
2022/08/02 11:29:51;;;;;;;;;;;22.60;67.20;;;22.00;62.13;96210.28;4232495;33;19983;-82
2022/08/02 11:32:22;;;;;;;;;;;22.60;67.30;;;21.99;62.35;96209.47;4208908;33;19974;-82
2022/08/02 11:34:54;;;;;;;;;;;22.60;67.30;;;21.98;62.53;96210.63;4206758;33;20108;-82
2022/08/02 11:37:29;;;;;;;;;;;22.60;67.30;;;21.97;62.52;96209.00;4183630;33;19909;-83
2022/08/02 11:39:58;;;;;;;;;;;22.60;67.50;;;21.96;62.55;96224.09;4206800;33;20120;-82
2022/08/02 11:42:32;;;;;;;;;;;22.60;67.40;;;21.95;62.47;96205.75;4229456;33;19904;-82
2022/08/02 11:45:02;;;;;;;;;;;22.50;67.50;;;21.96;62.72;96204.59;4206680;33;20138;-83
2022/08/02 11:47:31;;;;;;;;;;;22.60;67.50;;;21.98;62.29;96201.44;4206714;33;19902;-82
2022/08/02 11:50:07;;;;;;;;;;;22.60;67.50;;;21.97;62.56;96206.22;4183393;33;19903;-82